Latest Weather Observations for Cerberus

IDV60801

Issued at 10:35 pm EST Thursday 17 April 2014 (issued every 30 minutes, with the page automatically refreshed every 10 minutes)

About weather observations | Map of weather stations | Latest weather observations for VIC | Other Formats
Station Details ID: 086361 Name: CERBERUS Lat: -38.36 Lon: 145.18 Height: 12.69 m
Data from the previous 72 hours. | See also: Recent months at Cerberus
Date/Time
EST
Temp
°C
App
Temp
°C
Dew
Point
Rel
Hum
%
Delta-T
°C
Wind Press
QNH
hPa
Press
MSL
hPa
Rain
since 9 am
mm
Dir
 
Spd
km/h
Gust
km/h
Spd
kts
Gust
kts
17/10:30pm 13.7 12.7 12.3 91 0.8 SW 9 11 5 6 1017.8 - 0.0
17/10:00pm 12.4 12.6 10.6 89 0.9 E 0 0 0 0 1017.7 1017.6 0.0
17/09:30pm 12.2 12.4 10.4 89 0.9 CALM 0 0 0 0 1017.7 - 0.0
17/09:00pm 12.0 11.7 10.1 88 1.0 E 2 4 1 2 1017.7 1017.6 0.0
17/08:30pm 12.2 12.3 10.1 87 1.1 CALM 0 2 0 1 1017.8 - 0.0
17/08:00pm 12.8 12.6 10.5 86 1.2 E 2 4 1 2 1017.9 1017.8 0.0
17/07:30pm 13.7 13.7 11.0 84 1.4 E 2 2 1 1 1018.0 - 0.0
17/07:00pm 14.8 15.3 11.6 81 1.7 CALM 0 2 0 1 1018.1 1018.0 0.0
17/06:30pm 16.0 15.9 12.2 78 2.1 E 4 6 2 3 1018.0 - 0.0
17/06:00pm 16.8 16.8 12.3 75 2.5 E 4 6 2 3 1018.0 1017.9 0.0
17/05:30pm 17.9 17.6 12.6 71 3.0 E 6 7 3 4 1017.9 - 0.0
17/05:00pm 19.5 19.3 13.0 66 3.7 E 6 9 3 5 1017.9 1017.8 0.0
17/04:30pm 20.1 19.8 12.8 63 4.1 SSW 6 9 3 5 1018.1 - 0.0
17/04:00pm 20.3 19.6 11.5 57 4.9 SSW 6 9 3 5 1018.2 1018.1 0.0
17/03:30pm 20.5 20.2 11.4 56 5.0 SSW 4 7 2 4 1018.4 - 0.0
17/03:00pm 20.9 20.4 12.6 59 4.7 SSW 7 11 4 6 1018.7 1018.6 0.0
17/02:30pm 20.0 18.7 12.5 62 4.2 SSW 11 17 6 9 1018.9 - 0.0
17/02:00pm 22.0 20.3 9.9 46 6.5 NNW 9 17 5 9 1018.9 1018.8 0.0
17/01:30pm 21.7 21.0 12.0 54 5.4 N 7 13 4 7 1019.1 - 0.0
17/01:00pm 20.8 19.5 11.4 55 5.2 NE 9 13 5 7 1019.5 1019.4 0.0
17/12:30pm 20.5 19.8 12.0 58 4.7 NNE 7 11 4 6 1019.8 - 0.0
17/12:00pm 20.0 19.5 12.5 62 4.2 NNE 7 13 4 7 1020.1 1020.0 0.0
17/11:30am 19.6 18.9 12.1 62 4.2 NNE 7 11 4 6 1020.4 - 0.0
17/11:00am 18.8 18.5 13.2 70 3.2 ENE 7 11 4 6 1020.7 1020.6 0.0
17/10:30am 18.3 19.0 14.4 78 2.2 ENE 4 9 2 5 1020.7 - 0.0
17/10:00am 16.9 17.2 14.4 85 1.4 NE 6 9 3 5 1020.8 1020.7 0.0
17/09:30am 15.9 16.1 14.3 90 0.9 NE 6 9 3 5 1021.0 - 0.0
17/09:00am 14.7 14.6 13.4 92 0.7 NNE 6 9 3 5 1021.1 1021.0 0.0
17/08:30am 13.4 13.0 12.3 93 0.6 NNE 6 7 3 4 1021.0 - 0.0
17/08:00am 11.8 11.0 10.9 94 0.5 NNE 6 7 3 4 1020.8 1020.7 0.0
17/07:30am 10.2 9.3 9.1 93 0.5 NNE 4 4 2 2 1020.7 - 0.0
17/07:00am 9.1 8.3 8.0 93 0.5 NNE 2 2 1 1 1020.4 1020.3 0.0
17/06:30am 9.2 8.4 8.0 92 0.6 NNE 2 4 1 2 1020.1 - 0.0
17/06:00am 10.7 9.9 9.6 93 0.6 NNE 4 4 2 2 1020.1 1020.0 0.0
17/05:30am 10.6 9.8 9.5 93 0.6 NNE 4 4 2 2 1019.8 - 0.0
17/05:00am 9.9 8.9 8.8 93 0.5 NNE 4 4 2 2 1019.7 1019.6 0.0
17/04:30am 9.5 9.1 8.3 92 0.6 CALM 0 0 0 0 1019.7 - 0.0
17/04:00am 9.9 9.6 8.8 93 0.5 CALM 0 0 0 0 1019.4 1019.3 0.0
17/03:30am 10.8 9.6 9.6 92 0.6 NNE 6 7 3 4 1019.3 - 0.0
17/03:00am 10.8 9.6 9.6 92 0.6 N 6 6 3 3 1019.3 1019.2 0.0
17/02:30am 11.0 9.8 9.6 91 0.7 N 6 7 3 4 1019.3 - 0.0
17/02:00am 11.2 10.4 9.8 91 0.7 WSW 4 4 2 2 1019.4 1019.3 0.0
17/01:30am 11.4 11.1 10.0 91 0.7 WSW 2 4 1 2 1019.5 - 0.0
17/01:00am 10.9 9.7 9.5 91 0.7 WSW 6 7 3 4 1019.5 1019.4 0.0
17/12:30am 10.2 9.9 8.8 91 0.7 CALM 0 0 0 0 1019.7 - 0.0
17/12:00am 9.5 9.0 7.9 90 0.8 WSW 0 0 0 0 1019.6 1019.5 0.0
 
Date/Time
EST
Temp
°C
App
Temp
°C
Dew
Point
Rel
Hum
%
Delta-T
°C
Wind Press
QNH
hPa
Press
MSL
hPa
Rain
since 9 am
mm
Dir
 
Spd
km/h
Gust
km/h
Spd
kts
Gust
kts
16/11:30pm 10.1 9.7 8.4 89 0.8 CALM 0 0 0 0 1019.7 - 0.0
16/11:00pm 10.0 9.6 8.3 89 0.8 CALM 0 0 0 0 1019.6 1019.5 0.0
16/10:30pm 10.3 10.0 8.6 89 0.8 CALM 0 0 0 0 1019.7 - 0.0
16/10:00pm 11.3 11.2 9.4 88 1.0 CALM 0 0 0 0 1019.8 1019.7 0.0
16/09:30pm 11.2 11.0 9.1 87 1.0 CALM 0 0 0 0 1019.8 - 0.0
16/09:00pm 12.3 12.4 10.0 86 1.2 CALM 0 2 0 1 1019.7 1019.6 0.0
16/08:30pm 12.9 13.1 10.4 85 1.3 CALM 0 0 0 0 1019.6 - 0.0
16/08:00pm 13.3 12.7 10.5 83 1.5 WSW 4 7 2 4 1019.6 1019.5 0.0
16/07:30pm 14.8 15.3 11.6 81 1.7 CALM 0 0 0 0 1019.5 - 0.0
16/07:00pm 15.7 16.4 12.3 80 1.9 CALM 0 4 0 2 1019.5 1019.4 0.0
16/06:30pm 15.7 15.7 12.3 80 1.9 WSW 4 6 2 3 1019.4 - 0.0
16/06:00pm 16.1 15.4 12.1 77 2.2 WSW 7 9 4 5 1019.0 1018.9 0.0
16/05:30pm 17.0 16.0 12.3 74 2.6 SW 9 15 5 8 1018.9 - 0.0
16/05:00pm 17.7 17.4 12.6 72 2.8 WSW 6 7 3 4 1018.6 1018.5 0.0
16/04:30pm 17.8 17.1 12.0 69 3.2 WSW 7 11 4 6 1018.5 - 0.0
16/04:00pm 19.5 18.4 10.5 56 4.9 S 7 13 4 7 1018.2 1018.1 0.0
16/03:30pm 19.9 19.1 11.1 57 4.8 SE 6 7 3 4 1018.3 - 0.0
16/03:00pm 19.8 18.4 11.0 57 4.8 SE 9 13 5 7 1018.4 1018.3 0.0
16/02:30pm 19.6 18.6 10.9 57 4.7 E 7 11 4 6 1018.5 - 0.0
16/02:00pm 19.8 18.8 11.0 57 4.8 E 7 13 4 7 1018.6 1018.5 0.0
16/01:30pm 19.5 19.0 10.8 57 4.7 N 4 9 2 5 1018.9 - 0.0
16/01:00pm 19.1 18.1 10.4 57 4.7 NE 6 9 3 5 1019.1 1019.0 0.0
16/12:30pm 18.5 17.5 10.3 59 4.4 NE 6 9 3 5 1019.5 - 0.0
16/12:00pm 18.1 16.4 9.7 58 4.4 ENE 9 15 5 8 1019.8 1019.7 0.0
16/11:30am 17.1 14.5 9.5 61 4.0 NE 13 22 7 12 1020.2 - 0.0
16/11:00am 16.9 14.8 11.0 68 3.2 ENE 13 22 7 12 1020.4 1020.3 0.0
16/10:30am 16.2 14.9 11.4 73 2.6 NE 9 19 5 10 1020.7 - 0.0
16/10:00am 15.1 13.9 11.5 79 1.9 NE 9 19 5 10 1020.9 1020.8 0.0
16/09:30am 14.3 13.0 11.3 82 1.6 NE 9 15 5 8 1021.3 - 0.0
16/09:00am 14.1 13.3 11.6 85 1.3 NE 7 13 4 7 1021.2 1021.1 0.0
16/08:30am 13.4 13.2 11.8 90 0.9 N 4 11 2 6 1021.2 - 0.0
16/08:00am 11.8 11.6 10.4 91 0.7 N 2 6 1 3 1021.1 1021.0 0.0
16/07:30am 7.9 6.7 6.4 90 0.7 NNW 2 6 1 3 1021.1 - 0.0
16/07:00am 8.4 7.3 7.0 91 0.6 NNW 2 6 1 3 1020.9 1020.8 0.0
16/06:30am 7.3 5.5 5.6 89 0.8 NNW 4 7 2 4 1020.9 - 0.0
16/06:00am 7.8 6.9 5.9 88 0.9 CALM 0 0 0 0 1020.9 1020.8 0.0
16/05:30am 8.6 7.8 6.6 87 0.9 CALM 0 2 0 1 1021.0 - 0.0
16/05:00am 8.8 8.0 6.6 86 1.0 CALM 0 4 0 2 1020.9 1020.8 0.0
16/04:30am 9.2 8.4 6.3 82 1.3 CALM 0 2 0 1 1020.9 - 0.0
16/04:00am 10.9 10.0 7.8 81 1.5 E 2 6 1 3 1020.7 1020.6 0.0
16/03:30am 12.9 11.7 9.5 80 1.7 E 6 9 3 5 1020.5 - 0.0
16/03:00am 13.0 12.1 9.3 78 1.9 E 4 6 2 3 1020.7 1020.6 0.0
16/02:30am 13.8 12.5 9.8 77 2.1 E 7 11 4 6 1021.0 - 0.0
16/02:00am 14.2 12.6 10.2 77 2.1 E 9 17 5 9 1021.5 1021.4 0.0
16/01:30am 14.0 12.8 10.2 78 2.0 ESE 7 11 4 6 1021.9 - 0.0
16/01:00am 14.0 13.0 10.4 79 1.9 E 6 11 3 6 1022.0 1022.0 0.0
16/12:30am 14.2 13.1 10.6 79 1.9 E 7 11 4 6 1022.1 - 0.0
16/12:00am 14.2 13.1 10.8 80 1.8 ESE 7 13 4 7 1022.3 1022.3 0.0
 
Date/Time
EST
Temp
°C
App
Temp
°C
Dew
Point
Rel
Hum
%
Delta-T
°C
Wind Press
QNH
hPa
Press
MSL
hPa
Rain
since 9 am
mm
Dir
 
Spd
km/h
Gust
km/h
Spd
kts
Gust
kts
15/11:30pm 14.2 13.1 10.8 80 1.8 E 7 11 4 6 1022.5 - 0.0
15/11:00pm 14.5 13.5 11.1 80 1.8 E 7 11 4 6 1022.9 1022.9 0.0
15/10:30pm 14.5 13.7 11.1 80 1.8 ESE 6 11 3 6 1023.0 - 0.0
15/10:00pm 14.5 13.7 10.9 79 1.9 E 6 11 3 6 1023.4 1023.4 0.0
15/09:30pm 14.7 13.9 11.1 79 1.9 ESE 6 11 3 6 1023.4 - 0.0
15/09:00pm 14.9 14.1 11.1 78 2.0 E 6 9 3 5 1023.2 1023.2 0.0
15/08:30pm 15.4 14.6 11.6 78 2.0 E 7 13 4 7 1023.1 - 0.0
15/08:00pm 16.1 15.2 12.5 79 2.0 E 9 15 5 8 1022.9 1022.9 0.0
15/07:30pm 16.3 15.8 12.7 79 2.0 SE 7 15 4 8 1023.1 - 0.0
15/07:00pm 16.0 15.0 12.2 78 2.1 SE 9 15 5 8 1022.8 1022.8 0.0
15/06:30pm 15.9 14.3 11.5 75 2.4 SE 11 17 6 9 1022.6 - 0.0
15/06:00pm 16.3 14.7 11.5 73 2.6 SE 11 22 6 12 1022.4 1022.4 0.0
15/05:30pm 16.9 15.0 11.8 72 2.8 SE 13 20 7 11 1022.2 - 0.0
15/05:00pm 17.4 14.9 11.2 67 3.3 SE 15 24 8 13 1022.0 1022.0 0.0
15/04:30pm 17.9 15.9 11.5 66 3.5 SSE 13 20 7 11 1022.1 - 0.0
15/04:00pm 18.4 16.7 12.4 68 3.3 S 13 22 7 12 1022.2 1022.2 0.0
15/03:30pm 18.4 16.1 11.9 66 3.6 SSE 15 28 8 15 1022.3 - 0.0
15/03:00pm 18.8 16.3 11.1 61 4.2 S 15 22 8 12 1022.4 1022.4 0.0
15/02:30pm 18.9 16.9 11.5 62 4.1 S 13 20 7 11 1022.3 - 0.0
15/02:00pm 18.5 15.9 10.8 61 4.1 S 15 22 8 12 1022.3 1022.3 0.0
15/01:30pm 18.3 15.4 9.6 57 4.6 S 15 26 8 14 1022.4 - 0.0
15/01:00pm 18.4 15.7 10.3 59 4.3 S 15 24 8 13 1022.7 1022.7 0.0
15/12:30pm 19.0 16.8 10.8 59 4.4 S 13 22 7 12 1023.1 - 0.0
15/12:00pm 18.5 16.4 9.8 57 4.6 ESE 11 19 6 10 1023.5 1023.5 0.0
15/11:30am 18.4 16.5 10.5 60 4.2 ESE 11 17 6 9 1023.7 - 0.0
15/11:00am 17.9 16.1 10.8 63 3.8 ESE 11 17 6 9 1024.0 1024.0 0.0
15/10:30am 17.8 16.3 12.0 69 3.2 ESE 11 15 6 8 1024.0 - 0.0
15/10:00am 17.2 16.6 13.5 79 2.1 ESE 9 15 5 8 1024.2 1024.2 0.0
15/09:30am 16.2 16.3 13.9 86 1.3 ESE 6 11 3 6 1024.3 - 0.0
15/09:00am 15.5 16.4 13.9 90 0.9 E 2 4 1 2 1024.4 1024.4 0.0
15/08:30am 14.2 14.7 12.8 91 0.8 ESE 2 6 1 3 1024.5 - 0.0
15/08:00am 12.4 12.8 11.3 93 0.6 CALM 0 0 0 0 1024.4 1024.4 0.0
15/07:30am 10.0 9.8 8.9 93 0.5 CALM 0 0 0 0 1024.0 - 0.0
15/07:00am 8.5 7.9 7.3 92 0.6 CALM 0 0 0 0 1023.7 1023.7 0.0
15/06:30am 8.6 8.0 7.4 92 0.6 CALM 0 0 0 0 1023.5 - 0.0
15/06:00am 8.3 7.6 7.1 92 0.6 CALM 0 0 0 0 1023.4 1023.4 0.0
15/05:30am 8.9 8.4 7.7 92 0.6 CALM 0 0 0 0 1023.4 - 0.0
15/05:00am 8.8 8.2 7.4 91 0.7 CALM 0 0 0 0 1023.3 1023.3 0.0
15/04:30am 9.7 9.3 8.3 91 0.7 CALM 0 0 0 0 1023.1 - 0.0
15/04:00am 10.3 10.1 8.9 91 0.7 CALM 0 0 0 0 1023.1 1023.1 0.0
15/03:30am 9.6 9.2 8.2 91 0.7 CALM 0 0 0 0 1023.2 - 0.0
15/03:00am 8.9 7.9 7.5 91 0.7 SE 2 4 1 2 1023.2 1023.2 0.0
15/02:30am 8.9 7.9 7.5 91 0.7 SE 2 4 1 2 1023.4 - 0.0
15/02:00am 9.4 8.5 7.8 90 0.8 SE 2 2 1 1 1023.4 1023.4 0.0
15/01:30am 9.6 8.8 8.0 90 0.8 SE 2 4 1 2 1023.6 - 0.0
15/01:00am 9.3 8.7 7.6 89 0.8 CALM 0 0 0 0 1023.6 1023.6 0.0
15/12:30am 10.0 9.6 8.3 89 0.8 CALM 0 0 0 0 1023.5 - 0.0
15/12:00am 10.5 10.2 8.6 88 0.9 CALM 0 2 0 1 1023.5 1023.5 0.0
 
Date/Time
EST
Temp
°C
App
Temp
°C
Dew
Point
Rel
Hum
%
Delta-T
°C
Wind Press
QNH
hPa
Press
MSL
hPa
Rain
since 9 am
mm
Dir
 
Spd
km/h
Gust
km/h
Spd
kts
Gust
kts
14/11:30pm 10.7 10.0 8.5 86 1.1 SE 2 2 1 1 1023.6 - 0.0
14/11:00pm 11.7 10.8 9.1 84 1.3 SE 4 6 2 3 1023.7 1023.7 0.0

Other Formats:

Comma delimited format used in spreadsheet applications
http://www.bom.gov.au/fwo/IDV60801/IDV60801.94898.axf

JavaScript Object Notation format (JSON) in row-major order
http://www.bom.gov.au/fwo/IDV60801/IDV60801.94898.json